Time;durP1;ratioP1;P1;durP2;ratioP2;P2;SDS_P1;SDS_P2;PMS_P1;PMS_P2;Temp;Humidity;BMP_temperature;BMP_pressure;BME280_temperature;BME280_humidity;BME280_pressure;Samples;Min_cycle;Max_cycle;Signal;HPM_P1;HPM_P2
2021/05/13 00:00:55;;;;;;;1.63;0.40;;;;;;;13.42;69.88;97567.59;5022962;28;20071;-77
2021/05/13 00:03:20;;;;;;;3.13;0.60;;;;;;;13.55;69.74;97579.16;5034349;28;20028;-78
2021/05/13 00:05:45;;;;;;;1.40;0.40;;;;;;;13.55;69.65;97584.38;5014810;28;20444;-78
2021/05/13 00:08:11;;;;;;;1.83;0.40;;;;;;;13.50;70.90;97578.91;5020338;28;20018;-77
2021/05/13 00:10:36;;;;;;;1.42;0.35;;;;;;;13.50;70.31;97578.91;4997713;28;20018;-77
2021/05/13 00:13:04;;;;;;;2.70;0.50;;;;;;;13.39;70.43;97572.41;5029278;28;20120;-78
2021/05/13 00:15:33;;;;;;;1.70;0.50;;;;;;;13.49;70.18;97572.88;5007023;28;20093;-77
2021/05/13 00:17:59;;;;;;;1.83;0.30;;;;;;;13.58;70.32;97574.38;5016777;28;20041;-78
2021/05/13 00:20:38;;;;;;;2.72;0.47;;;;;;;13.47;71.06;97567.06;5004105;28;20849;-77
2021/05/13 00:23:04;;;;;;;1.13;0.40;;;;;;;13.43;71.52;97571.00;5021405;28;20032;-78
2021/05/13 00:25:29;;;;;;;0.55;0.20;;;;;;;13.48;71.47;97570.47;5012986;28;20018;-78
2021/05/13 00:27:55;;;;;;;0.77;0.30;;;;;;;13.54;71.58;97567.09;5014045;28;20022;-77
2021/05/13 00:30:23;;;;;;;2.08;0.52;;;;;;;13.55;70.87;97558.28;5010834;28;20014;-77
2021/05/13 00:32:49;;;;;;;1.75;0.40;;;;;;;13.53;71.25;97547.22;5003959;28;20036;-77
2021/05/13 00:35:16;;;;;;;4.85;0.60;;;;;;;13.54;70.70;97573.09;5016109;28;20017;-78
2021/05/13 00:37:42;;;;;;;3.20;0.60;;;;;;;13.51;71.06;97570.91;5011794;28;20025;-78
2021/05/13 00:40:10;;;;;;;1.58;0.40;;;;;;;13.52;70.19;97569.09;4995752;28;20044;-78
2021/05/13 00:42:36;;;;;;;1.38;0.40;;;;;;;13.39;69.72;97546.28;5021788;28;20148;-78
2021/05/13 00:45:03;;;;;;;0.93;0.40;;;;;;;13.52;69.46;97569.09;5008701;28;20048;-77
2021/05/13 00:47:29;;;;;;;0.80;0.30;;;;;;;13.42;69.76;97545.91;5023096;28;20083;-78
2021/05/13 00:49:55;;;;;;;1.55;0.45;;;;;;;13.53;70.39;97566.28;5030842;28;20033;-78
2021/05/13 00:52:23;;;;;;;1.85;0.30;;;;;;;13.36;70.82;97544.88;5001049;28;20609;-78
2021/05/13 00:54:49;;;;;;;0.98;0.40;;;;;;;13.50;70.86;97563.25;5015256;28;20291;-79
2021/05/13 00:57:15;;;;;;;1.65;0.55;;;;;;;13.34;70.91;97543.41;5007332;28;20132;-80
2021/05/13 00:59:44;;;;;;;2.15;0.50;;;;;;;13.52;71.94;97571.69;4994243;28;20026;-76
2021/05/13 01:02:10;;;;;;;1.65;0.60;;;;;;;13.20;71.62;97526.81;5013477;28;20747;-77
2021/05/13 01:04:35;;;;;;;3.72;0.50;;;;;;;13.12;72.28;97547.81;5014943;28;20036;-77
2021/05/13 01:07:01;;;;;;;2.05;0.50;;;;;;;13.28;72.58;97577.09;4999260;28;20105;-77
2021/05/13 01:09:30;;;;;;;2.88;0.60;;;;;;;13.20;72.42;97571.19;5017739;28;20089;-77
2021/05/13 01:11:59;;;;;;;2.42;0.55;;;;;;;12.98;73.07;97581.63;5020895;28;20041;-77
2021/05/13 01:14:40;;;;;;;1.23;0.40;;;;;;;13.00;72.52;97584.06;5040165;28;20439;-77
2021/05/13 01:19:37;;;;;;;1.90;0.50;;;;;;;13.19;72.27;97583.41;5015787;28;20137;-76
2021/05/13 01:22:02;;;;;;;2.45;0.43;;;;;;;13.17;72.79;97568.94;5020529;28;20020;-77
2021/05/13 01:24:28;;;;;;;0.40;0.30;;;;;;;13.30;72.14;97578.72;5038152;28;20915;-78
2021/05/13 01:26:54;;;;;;;2.05;0.40;;;;;;;13.41;71.88;97583.44;4997802;28;20017;-77
2021/05/13 01:29:21;;;;;;;1.92;0.50;;;;;;;13.41;71.12;97560.75;5018896;28;20016;-77
2021/05/13 01:31:47;;;;;;;1.58;0.40;;;;;;;13.43;71.23;97561.41;5046534;28;20018;-77
2021/05/13 01:34:13;;;;;;;2.83;0.70;;;;;;;13.47;71.64;97567.06;5026049;28;20029;-77
2021/05/13 01:36:38;;;;;;;3.47;0.60;;;;;;;13.44;72.40;97568.22;5025333;28;20070;-76
2021/05/13 01:39:07;;;;;;;3.20;0.50;;;;;;;12.93;73.61;97550.06;5040629;28;20088;-77
2021/05/13 01:41:33;;;;;;;1.95;0.50;;;;;;;12.80;73.37;97562.97;5039866;28;20021;-78
2021/05/13 01:43:58;;;;;;;5.13;0.60;;;;;;;12.65;74.53;97539.53;5030056;28;20044;-77
2021/05/13 01:46:23;;;;;;;3.00;0.60;;;;;;;12.47;74.43;97548.56;5028332;28;20033;-77
2021/05/13 01:48:49;;;;;;;2.33;0.50;;;;;;;12.51;74.84;97567.25;5015059;28;20021;-77
2021/05/13 01:51:14;;;;;;;3.05;0.60;;;;;;;12.22;74.62;97544.63;5005768;28;20011;-77
2021/05/13 01:53:44;;;;;;;1.52;0.50;;;;;;;12.40;75.00;97568.53;5019345;28;20057;-77
2021/05/13 01:56:10;;;;;;;2.83;0.65;;;;;;;12.31;74.33;97546.16;5025563;28;20026;-77
2021/05/13 01:58:36;;;;;;;1.05;0.40;;;;;;;12.30;74.56;97547.13;5027422;28;20045;-77
2021/05/13 02:01:02;;;;;;;2.17;0.55;;;;;;;12.26;74.71;97556.31;5013424;28;20083;-78
2021/05/13 02:03:28;;;;;;;3.08;0.60;;;;;;;12.39;74.79;97559.06;5008452;28;20098;-77
2021/05/13 02:05:54;;;;;;;1.95;0.70;;;;;;;12.36;74.17;97530.78;5031742;28;20029;-78
2021/05/13 02:08:20;;;;;;;0.77;0.40;;;;;;;12.45;74.19;97555.75;5009636;28;20025;-77
2021/05/13 02:10:45;;;;;;;2.05;0.40;;;;;;;12.50;73.73;97535.16;4994445;28;20589;-77
2021/05/13 02:13:11;;;;;;;2.17;0.60;;;;;;;12.60;72.87;97550.50;5011985;28;20029;-76
2021/05/13 02:15:36;;;;;;;1.63;0.50;;;;;;;12.74;73.32;97542.81;5022573;28;20025;-77
2021/05/13 02:18:02;;;;;;;1.75;0.50;;;;;;;12.74;73.84;97538.44;5010939;28;20036;-77
2021/05/13 02:20:27;;;;;;;2.25;0.57;;;;;;;12.59;72.54;97528.03;5007208;28;20021;-78
2021/05/13 02:22:57;;;;;;;1.35;0.43;;;;;;;12.25;72.58;97526.84;5008040;28;20500;-78
2021/05/13 02:25:26;;;;;;;1.85;0.50;;;;;;;12.10;73.24;97528.63;5023394;28;20013;-77
2021/05/13 02:27:51;;;;;;;1.45;0.40;;;;;;;12.15;73.46;97533.31;5004123;28;20014;-77
2021/05/13 02:30:17;;;;;;;2.10;0.40;;;;;;;12.37;72.94;97526.38;5022750;28;20044;-78
2021/05/13 02:32:42;;;;;;;2.33;0.50;;;;;;;12.42;72.27;97537.06;5010695;28;20052;-78
2021/05/13 02:35:09;;;;;;;3.13;0.57;;;;;;;12.43;72.97;97510.00;4989955;28;20021;-77
2021/05/13 02:37:34;;;;;;;1.75;0.50;;;;;;;12.74;71.75;97532.38;4992061;28;20025;-78
2021/05/13 02:40:00;;;;;;;3.45;0.70;;;;;;;12.76;71.51;97538.22;4988457;28;20021;-77
2021/05/13 02:42:25;;;;;;;1.13;0.40;;;;;;;12.71;72.18;97527.56;4999136;28;20022;-77
2021/05/13 02:44:51;;;;;;;2.40;0.50;;;;;;;12.40;73.49;97516.38;5005738;28;20026;-78
2021/05/13 02:47:16;;;;;;;1.48;0.35;;;;;;;12.32;74.03;97519.13;5024695;28;20506;-78
2021/05/13 02:49:42;;;;;;;1.40;0.50;;;;;;;12.45;73.50;97532.28;5027129;28;20037;-77
2021/05/13 02:52:07;;;;;;;3.38;0.50;;;;;;;12.33;73.08;97509.50;5006640;28;20082;-77
2021/05/13 02:54:32;;;;;;;2.53;0.63;;;;;;;12.34;72.88;97493.66;5026074;28;20285;-77
2021/05/13 02:56:58;;;;;;;1.63;0.50;;;;;;;12.43;72.56;97496.94;5001691;28;20018;-78
2021/05/13 02:59:29;;;;;;;3.38;0.50;;;;;;;12.01;74.24;97499.28;5006341;28;20021;-78
2021/05/13 03:01:55;;;;;;;5.75;0.63;;;;;;;12.24;74.04;97527.81;5008105;28;20063;-78
2021/05/13 03:04:20;;;;;;;2.25;0.63;;;;;;;12.05;74.02;97516.16;4989854;28;20025;-77
2021/05/13 03:06:47;;;;;;;2.30;0.70;;;;;;;11.83;74.96;97504.81;5018780;28;20692;-77
2021/05/13 03:09:15;;;;;;;2.50;0.50;;;;;;;12.07;75.36;97516.78;4993211;28;20040;-78
2021/05/13 03:11:40;;;;;;;1.38;0.35;;;;;;;12.04;74.48;97511.13;5006201;28;20045;-78
2021/05/13 03:14:06;;;;;;;1.15;0.40;;;;;;;12.14;74.55;97490.81;5022849;28;20033;-78
2021/05/13 03:16:31;;;;;;;1.42;0.43;;;;;;;12.37;73.60;97511.53;5024891;28;20021;-78
2021/05/13 03:18:57;;;;;;;2.70;0.50;;;;;;;12.41;74.02;97507.59;5008616;28;20028;-78
2021/05/13 03:21:43;;;;;;;3.33;0.60;;;;;;;12.44;72.61;97495.97;5000360;28;20030;-78
2021/05/13 03:24:19;;;;;;;2.20;0.40;;;;;;;12.23;73.57;97479.31;5010162;28;20025;-78
2021/05/13 03:29:10;;;;;;;0.90;0.35;;;;;;;12.08;73.35;97473.28;5003925;28;20033;-79
2021/05/13 03:31:35;;;;;;;1.75;0.43;;;;;;;12.36;73.29;97491.69;4992226;28;20093;-78
2021/05/13 03:34:01;;;;;;;2.05;0.80;;;;;;;12.21;73.21;97472.66;5015612;28;20554;-78
2021/05/13 03:36:27;;;;;;;6.28;0.60;;;;;;;12.33;73.68;97493.84;4988192;28;20663;-77
2021/05/13 03:38:52;;;;;;;1.30;0.45;;;;;;;12.33;72.78;97473.00;5014935;28;20033;-77
2021/05/13 03:41:18;;;;;;;1.50;0.65;;;;;;;12.34;72.37;97469.38;5009945;28;20476;-77
2021/05/13 03:43:43;;;;;;;2.60;0.63;;;;;;;12.32;72.62;97469.59;5002654;28;20151;-78
2021/05/13 03:46:09;;;;;;;2.47;0.50;;;;;;;12.53;72.62;97481.84;5029155;28;20021;-77
2021/05/13 03:48:34;;;;;;;2.00;0.60;;;;;;;12.43;73.00;97479.53;5008142;28;20736;-77
2021/05/13 03:51:00;;;;;;;3.17;0.80;;;;;;;12.32;73.20;97482.63;5006699;28;20605;-77
2021/05/13 03:53:25;;;;;;;1.83;0.60;;;;;;;12.23;73.70;97481.09;5024495;28;20144;-78
2021/05/13 03:55:52;;;;;;;2.00;0.57;;;;;;;12.39;72.57;97482.69;5027804;28;20021;-78
2021/05/13 03:58:20;;;;;;;2.35;0.60;;;;;;;11.95;73.82;97437.47;5008355;28;20032;-77
2021/05/13 04:03:11;;;;;;;3.53;0.70;;;;;;;12.17;74.29;97471.41;5004960;28;20661;-78
2021/05/13 04:05:36;;;;;;;2.15;0.60;;;;;;;12.26;73.49;97475.50;5008015;28;20021;-77
2021/05/13 04:08:06;;;;;;;1.13;0.40;;;;;;;12.28;73.69;97460.50;5000347;28;20041;-78
2021/05/13 04:10:32;;;;;;;2.10;0.50;;;;;;;12.18;72.92;97455.59;5016116;28;20026;-77
2021/05/13 04:12:58;;;;;;;2.67;0.63;;;;;;;12.20;73.13;97458.00;5008286;28;20128;-78
2021/05/13 04:15:23;;;;;;;2.90;0.70;;;;;;;12.11;73.32;97467.72;5019757;28;20268;-77
2021/05/13 04:17:49;;;;;;;3.10;0.60;;;;;;;12.14;73.09;97456.94;5013271;28;20075;-78
2021/05/13 04:20:14;;;;;;;1.75;0.60;;;;;;;11.90;73.54;97438.03;5010953;28;20298;-78
2021/05/13 04:22:40;;;;;;;1.23;0.40;;;;;;;11.97;73.59;97458.94;5029465;28;20029;-78
2021/05/13 04:25:06;;;;;;;3.25;0.68;;;;;;;11.83;74.93;97452.75;4991726;28;20029;-77
2021/05/13 04:27:34;;;;;;;4.30;0.70;;;;;;;11.83;74.58;97431.91;5018062;28;20100;-78
2021/05/13 04:29:59;;;;;;;2.78;0.52;;;;;;;12.17;73.78;97451.34;5030513;28;20025;-78
2021/05/13 04:32:25;;;;;;;2.38;0.68;;;;;;;11.91;74.35;97436.22;5010839;28;20638;-77
2021/05/13 04:34:50;;;;;;;2.08;0.65;;;;;;;12.04;73.84;97427.75;5004110;28;20043;-78
2021/05/13 04:37:16;;;;;;;2.55;0.52;;;;;;;12.29;73.59;97449.09;5001525;28;20029;-77
2021/05/13 04:39:41;;;;;;;2.50;0.57;;;;;;;12.17;73.50;97433.13;5012597;28;20077;-77
2021/05/13 04:42:08;;;;;;;3.38;0.68;;;;;;;12.09;74.32;97448.88;5005145;28;20104;-78
2021/05/13 04:44:35;;;;;;;2.60;0.70;;;;;;;11.95;74.10;97427.06;5006322;28;20112;-77
2021/05/13 04:47:10;;;;;;;3.97;0.73;;;;;;;12.14;73.98;97437.88;5007151;28;20548;-77
2021/05/13 04:49:36;;;;;;;4.28;0.88;;;;;;;12.25;74.27;97448.66;5009303;28;20041;-78
2021/05/13 04:52:02;;;;;;;2.70;0.82;;;;;;;11.94;74.55;97409.81;5008311;28;20108;-78
2021/05/13 04:54:27;;;;;;;3.05;1.00;;;;;;;11.91;75.05;97424.00;5009283;28;20714;-77
2021/05/13 04:56:53;;;;;;;3.70;1.25;;;;;;;12.04;75.14;97440.78;4992933;28;20433;-78
2021/05/13 04:59:18;;;;;;;5.53;1.50;;;;;;;11.97;75.30;97438.09;5007543;28;20057;-78
2021/05/13 05:01:43;;;;;;;5.82;1.48;;;;;;;11.98;74.86;97424.09;5007054;28;20030;-78
2021/05/13 05:04:09;;;;;;;3.80;1.45;;;;;;;12.03;75.42;97455.63;5007360;28;20021;-77
2021/05/13 05:06:34;;;;;;;4.22;1.30;;;;;;;11.92;75.31;97430.84;5012706;28;20029;-78
2021/05/13 05:09:00;;;;;;;4.00;1.30;;;;;;;11.93;75.10;97435.03;5000478;28;20109;-77
2021/05/13 05:11:26;;;;;;;4.03;1.13;;;;;;;11.91;74.78;97426.59;5022664;28;20051;-77
2021/05/13 05:13:51;;;;;;;3.47;1.30;;;;;;;12.02;74.46;97433.16;5024366;28;20022;-77
2021/05/13 05:16:17;;;;;;;2.97;1.20;;;;;;;12.01;74.12;97417.69;5004142;28;20025;-78
2021/05/13 05:18:43;;;;;;;2.80;1.02;;;;;;;11.99;74.16;97423.13;4999975;28;20018;-78
2021/05/13 05:21:08;;;;;;;3.15;0.90;;;;;;;12.07;73.50;97420.38;4989404;28;20148;-77
2021/05/13 05:23:34;;;;;;;3.97;1.00;;;;;;;12.10;73.92;97429.63;5003123;28;20475;-76
2021/05/13 05:26:00;;;;;;;4.07;1.05;;;;;;;11.99;74.49;97424.88;4981916;28;20031;-78
2021/05/13 05:28:26;;;;;;;2.50;1.00;;;;;;;12.02;74.34;97412.31;5017277;28;20065;-78
2021/05/13 05:30:52;;;;;;;2.45;0.93;;;;;;;11.91;73.85;97397.16;4989819;28;20483;-75
2021/05/13 05:33:17;;;;;;;2.90;1.10;;;;;;;12.17;73.95;97434.91;5004920;28;20025;-73
2021/05/13 05:35:43;;;;;;;3.03;1.00;;;;;;;12.14;73.87;97425.69;5021229;28;20113;-73
2021/05/13 05:38:08;;;;;;;4.53;1.00;;;;;;;12.34;73.23;97433.72;5023392;28;20021;-71
2021/05/13 05:40:34;;;;;;;3.58;1.13;;;;;;;12.18;74.09;97426.13;5016517;28;20474;-72
2021/05/13 05:42:59;;;;;;;3.17;1.00;;;;;;;12.38;73.29;97421.94;5024327;28;20154;-72
2021/05/13 05:45:25;;;;;;;3.05;0.93;;;;;;;12.24;72.61;97423.56;5016320;28;20108;-73
2021/05/13 05:47:52;;;;;;;5.40;1.08;;;;;;;12.11;73.26;97415.63;5004445;28;20025;-75
2021/05/13 05:50:19;;;;;;;3.42;1.08;;;;;;;12.08;73.62;97402.94;5001366;28;20606;-73
2021/05/13 05:52:44;;;;;;;4.97;1.00;;;;;;;12.25;72.45;97421.78;5010853;28;20148;-71
2021/05/13 05:55:10;;;;;;;4.07;1.23;;;;;;;12.06;73.66;97423.97;5013057;28;20032;-72
2021/05/13 05:57:36;;;;;;;3.83;1.10;;;;;;;12.07;73.74;97398.75;4997756;28;20022;-73
2021/05/13 06:00:04;;;;;;;4.70;1.10;;;;;;;12.38;73.04;97421.94;5003142;28;20032;-73
2021/05/13 06:02:30;;;;;;;3.78;1.00;;;;;;;12.43;72.88;97416.97;4998502;28;20128;-72
2021/05/13 06:04:55;;;;;;;3.25;1.10;;;;;;;12.44;73.53;97415.16;5002258;28;20025;-72
2021/05/13 06:07:21;;;;;;;4.45;1.23;;;;;;;12.29;74.12;97402.19;5015322;28;20033;-72
2021/05/13 06:09:46;;;;;;;4.40;0.98;;;;;;;12.42;73.18;97388.47;5019813;28;20023;-73
2021/05/13 06:12:13;;;;;;;3.40;1.20;;;;;;;12.55;72.99;97417.25;4996207;28;20029;-75
2021/05/13 06:14:39;;;;;;;4.50;1.20;;;;;;;12.57;72.93;97414.47;4998680;28;20243;-73
2021/05/13 06:17:04;;;;;;;4.40;1.30;;;;;;;12.57;73.15;97415.28;4993611;28;20026;-74
2021/05/13 06:19:30;;;;;;;3.20;1.23;;;;;;;12.50;73.36;97411.78;5001668;28;20021;-72
2021/05/13 06:21:55;;;;;;;2.90;1.00;;;;;;;12.47;73.30;97407.78;5019196;28;20024;-72
2021/05/13 06:24:20;;;;;;;3.92;0.90;;;;;;;12.64;72.72;97417.97;4996363;28;20026;-73
2021/05/13 06:26:57;;;;;;;2.72;0.90;;;;;;;12.64;72.72;97412.75;5001019;28;20029;-73
2021/05/13 06:29:23;;;;;;;3.92;1.20;;;;;;;12.66;72.38;97401.13;5002080;28;20044;-73
2021/05/13 06:31:48;;;;;;;3.05;1.20;;;;;;;12.67;72.52;97414.97;4994413;28;20124;-73
2021/05/13 06:34:14;;;;;;;3.60;1.10;;;;;;;12.41;73.39;97403.31;5014628;28;20088;-73
2021/05/13 06:36:39;;;;;;;5.22;1.20;;;;;;;12.68;72.59;97403.53;5016803;28;20041;-73
2021/05/13 06:39:05;;;;;;;3.60;1.00;;;;;;;12.76;72.58;97413.84;5027445;28;20048;-74
2021/05/13 06:41:30;;;;;;;4.03;1.17;;;;;;;12.66;71.50;97395.09;5006110;28;20025;-74
2021/05/13 06:43:57;;;;;;;4.13;1.13;;;;;;;12.61;72.14;97400.91;5000399;28;20025;-73
2021/05/13 06:46:23;;;;;;;4.25;1.10;;;;;;;12.41;72.61;97392.06;5016621;28;20028;-73
2021/05/13 06:48:48;;;;;;;5.25;1.13;;;;;;;12.41;72.86;97407.69;4998828;28;20389;-73
2021/05/13 06:51:14;;;;;;;3.65;1.00;;;;;;;12.57;72.43;97406.66;4982647;28;20025;-73
2021/05/13 06:53:39;;;;;;;5.85;1.13;;;;;;;12.48;71.54;97411.19;5012565;28;20025;-73
2021/05/13 06:56:05;;;;;;;4.85;0.98;;;;;;;12.56;71.70;97398.03;4998327;28;20030;-73
2021/05/13 06:58:30;;;;;;;3.55;1.20;;;;;;;12.56;71.47;97411.06;4995862;28;20021;-73
2021/05/13 07:00:55;;;;;;;3.55;0.90;;;;;;;12.43;70.87;97403.94;5014124;28;20754;-73
2021/05/13 07:03:21;;;;;;;4.40;1.02;;;;;;;12.27;70.39;97404.16;5017272;28;20025;-74
2021/05/13 07:05:46;;;;;;;1.95;0.70;;;;;;;12.59;70.80;97408.06;4996738;28;20120;-73
2021/05/13 07:08:12;;;;;;;2.90;0.90;;;;;;;12.81;69.18;97419.31;4982136;28;20036;-73
2021/05/13 07:10:38;;;;;;;3.95;1.05;;;;;;;12.71;69.86;97407.59;4993304;28;20028;-73
2021/05/13 07:13:04;;;;;;;2.28;0.75;;;;;;;12.65;69.62;97398.72;5002013;28;20029;-73
2021/05/13 07:15:31;;;;;;;3.30;1.00;;;;;;;12.74;68.73;97412.41;4984699;28;20017;-73
2021/05/13 07:17:56;;;;;;;4.15;1.10;;;;;;;12.60;71.22;97396.66;4997671;28;20568;-73
2021/05/13 07:20:22;;;;;;;3.03;0.80;;;;;;;12.39;72.38;97387.03;4996684;28;20033;-73
2021/05/13 07:22:49;;;;;;;5.07;0.95;;;;;;;12.39;72.36;97402.66;4982999;28;20072;-72
2021/05/13 07:25:15;;;;;;;6.88;1.02;;;;;;;12.45;72.58;97411.56;5000617;28;20033;-72
2021/05/13 07:27:40;;;;;;;2.13;0.65;;;;;;;12.30;71.78;97383.75;4995891;28;20037;-72
2021/05/13 07:30:10;;;;;;;3.92;0.85;;;;;;;12.27;72.09;97399.75;4999262;28;20026;-72
2021/05/13 07:32:36;;;;;;;2.05;0.68;;;;;;;11.90;71.68;97374.69;4996625;28;20025;-72
2021/05/13 07:35:01;;;;;;;3.42;1.10;;;;;;;12.10;71.52;97390.53;5006901;28;20683;-72
2021/05/13 07:37:27;;;;;;;2.50;0.55;;;;;;;12.18;71.00;97394.84;5000090;28;20098;-72
2021/05/13 07:39:52;;;;;;;2.90;0.70;;;;;;;12.07;71.37;97381.31;4996873;28;20059;-72
2021/05/13 07:42:19;;;;;;;1.80;0.60;;;;;;;12.19;71.18;97373.00;4998450;28;20060;-73
2021/05/13 07:44:44;;;;;;;5.00;0.75;;;;;;;12.29;71.68;97387.34;5000576;28;20034;-73
2021/05/13 07:47:10;;;;;;;1.50;0.50;;;;;;;12.38;69.16;97375.00;4998588;28;20033;-73
2021/05/13 07:49:36;;;;;;;2.65;0.70;;;;;;;12.56;68.82;97379.78;5011146;28;20633;-75
2021/05/13 07:52:02;;;;;;;4.25;0.80;;;;;;;12.10;69.40;97367.09;4994075;28;20033;-75
2021/05/13 07:54:28;;;;;;;1.55;0.50;;;;;;;12.20;68.40;97370.22;4987580;28;20429;-75
2021/05/13 07:56:53;;;;;;;1.80;0.60;;;;;;;12.27;67.52;97376.31;4989475;28;20132;-74
2021/05/13 07:59:19;;;;;;;3.78;0.85;;;;;;;12.62;65.87;97362.56;5006960;28;20529;-75
2021/05/13 08:01:45;;;;;;;1.70;0.60;;;;;;;12.93;65.87;97366.63;4980005;28;20057;-74
2021/05/13 08:04:10;;;;;;;2.50;0.70;;;;;;;13.21;63.58;97358.78;4997659;28;20029;-74
2021/05/13 08:06:37;;;;;;;4.38;0.70;;;;;;;13.45;63.70;97363.56;4975849;28;20057;-74
2021/05/13 08:09:03;;;;;;;3.83;0.80;;;;;;;13.67;63.01;97357.41;4996218;28;20029;-75
2021/05/13 08:11:28;;;;;;;1.75;0.60;;;;;;;14.03;60.95;97376.22;4993554;28;20032;-74
2021/05/13 08:13:54;;;;;;;3.47;0.57;;;;;;;14.23;59.01;97370.25;4993049;28;20770;-74
2021/05/13 08:16:19;;;;;;;2.08;0.63;;;;;;;14.42;57.38;97355.63;4993621;28;20083;-74
2021/05/13 08:18:45;;;;;;;2.10;0.50;;;;;;;14.14;58.47;97353.16;4998251;28;20048;-74
2021/05/13 08:21:11;;;;;;;4.80;0.55;;;;;;;14.51;58.64;97361.44;4994003;28;20636;-73
2021/05/13 08:23:36;;;;;;;2.08;0.70;;;;;;;14.78;56.17;97365.72;4990747;28;20029;-74
2021/05/13 08:26:02;;;;;;;2.90;0.60;;;;;;;14.93;56.80;97356.81;4995828;28;20036;-74
2021/05/13 08:28:27;;;;;;;2.10;0.50;;;;;;;14.90;55.73;97357.25;4993083;28;20642;-76
2021/05/13 08:30:53;;;;;;;5.75;1.65;;;;;;;14.85;55.25;97343.97;4998607;28;20042;-74
2021/05/13 08:33:18;;;;;;;4.40;0.85;;;;;;;15.22;55.14;97349.53;4997345;28;20034;-76
2021/05/13 08:35:43;;;;;;;3.13;0.70;;;;;;;15.40;54.93;97339.22;4988623;28;20042;-75
2021/05/13 08:38:09;;;;;;;2.95;0.68;;;;;;;15.47;53.67;97326.09;4990185;28;20537;-75
2021/05/13 08:40:34;;;;;;;3.67;0.80;;;;;;;15.76;53.67;97338.69;4995285;28;20038;-76
2021/05/13 08:43:01;;;;;;;4.15;0.60;;;;;;;15.99;52.10;97333.94;5002395;28;20039;-74
2021/05/13 08:45:27;;;;;;;2.45;0.68;;;;;;;16.00;52.98;97335.56;4982728;28;20057;-75
2021/05/13 08:47:54;;;;;;;5.45;0.60;;;;;;;16.08;54.49;97309.09;5006720;28;20029;-75
2021/05/13 08:50:19;;;;;;;2.25;0.70;;;;;;;16.28;49.81;97319.44;5000068;28;20026;-73
2021/05/13 08:52:45;;;;;;;3.38;0.70;;;;;;;16.51;49.69;97321.50;5003517;28;20104;-73
2021/05/13 08:55:11;;;;;;;3.47;0.70;;;;;;;16.34;48.89;97318.63;4987992;28;20048;-74
2021/05/13 08:57:37;;;;;;;2.35;0.40;;;;;;;16.42;48.82;97323.59;5018478;28;20010;-76
2021/05/13 09:00:06;;;;;;;2.38;0.60;;;;;;;16.52;47.41;97321.28;4990486;28;20298;-75
2021/05/13 09:02:31;;;;;;;2.10;0.57;;;;;;;16.45;48.57;97314.50;4996262;28;20528;-74
2021/05/13 09:04:59;;;;;;;2.13;0.60;;;;;;;16.40;47.11;97323.00;4995199;28;20021;-74
2021/05/13 09:07:29;;;;;;;4.18;0.82;;;;;;;16.57;48.39;97319.84;4989760;28;20025;-75
2021/05/13 09:10:08;;;;;;;4.45;0.90;;;;;;;16.85;48.14;97322.88;5013358;28;20025;-74
2021/05/13 09:12:37;;;;;;;1.48;0.40;;;;;;;16.97;47.05;97316.91;5011988;28;20101;-74
2021/05/13 09:15:10;;;;;;;2.72;0.70;;;;;;;17.25;45.79;97319.84;4989707;28;20493;-75
2021/05/13 09:17:37;;;;;;;3.35;1.15;;;;;;;17.53;44.57;97304.56;5006764;28;20044;-73
2021/05/13 09:20:04;;;;;;;3.15;0.50;;;;;;;17.44;42.93;97307.50;5014152;28;20029;-74
2021/05/13 09:22:30;;;;;;;2.63;0.60;;;;;;;17.47;43.91;97304.44;4993701;28;20808;-73
2021/05/13 09:25:02;;;;;;;1.77;0.60;;;;;;;17.58;44.47;97294.22;5017707;28;20121;-74
2021/05/13 09:27:34;;;;;;;1.48;0.50;;;;;;;17.44;41.34;97302.22;5009233;28;20026;-76
2021/05/13 09:30:12;;;;;;;3.60;0.85;;;;;;;17.38;42.17;97273.44;5010242;28;20129;-74
2021/05/13 09:32:38;;;;;;;2.70;0.50;;;;;;;17.48;43.12;97286.84;5018390;28;20017;-73
2021/05/13 09:35:33;;;;;;;2.55;0.60;;;;;;;17.72;40.60;97293.00;5004778;28;20501;-74
2021/05/13 09:38:01;;;;;;;1.80;0.43;;;;;;;17.77;40.26;97290.50;5017763;28;20086;-74
2021/05/13 09:40:40;;;;;;;1.83;0.50;;;;;;;17.84;42.06;97288.59;5007589;28;20018;-73
2021/05/13 09:43:19;;;;;;;2.45;0.52;;;;;;;17.78;41.23;97280.78;5002884;28;20645;-74
2021/05/13 09:45:54;;;;;;;3.22;0.85;;;;;;;17.84;40.58;97285.94;5008707;28;20043;-73
2021/05/13 09:48:39;;;;;;;2.58;0.68;;;;;;;17.84;41.79;97283.31;5000147;28;20013;-75
2021/05/13 09:51:37;;;;;;;1.50;0.50;;;;;;;18.03;36.66;97267.50;5000403;28;20079;-73
2021/05/13 09:54:16;;;;;;;2.55;0.70;;;;;;;18.51;40.73;97271.00;5019023;28;20095;-71
2021/05/13 09:56:45;;;;;;;1.85;0.57;;;;;;;18.77;38.79;97267.13;4998100;28;20025;-71
2021/05/13 09:59:23;;;;;;;;;;;;;;;18.99;36.63;97260.25;4998819;28;20021;-71
2021/05/13 10:01:52;;;;;;;2.95;0.55;;;;;;;19.10;37.93;97245.47;5015785;28;20642;-72
2021/05/13 10:04:18;;;;;;;1.55;0.43;;;;;;;19.39;35.30;97245.50;5002118;28;20071;-70
2021/05/13 10:06:44;;;;;;;3.53;0.65;;;;;;;19.48;35.05;97254.66;4996296;28;20116;-71
2021/05/13 10:09:13;;;;;;;1.73;0.43;;;;;;;19.57;32.90;97240.06;5018011;28;20025;-75
2021/05/13 10:11:41;;;;;;;1.98;0.57;;;;;;;19.65;33.95;97228.31;4999320;28;20105;-74
2021/05/13 10:14:07;;;;;;;2.95;0.60;;;;;;;19.89;31.34;97233.50;4984993;28;20033;-75
2021/05/13 10:16:33;;;;;;;3.45;0.52;;;;;;;19.89;32.14;97228.22;4992724;28;20530;-77
2021/05/13 10:19:08;;;;;;;1.75;0.52;;;;;;;19.73;30.51;97217.44;4993616;28;20047;-77
2021/05/13 10:21:36;;;;;;;1.20;0.40;;;;;;;20.05;35.42;97245.13;4999068;28;20029;-75
2021/05/13 10:24:02;;;;;;;1.25;0.40;;;;;;;20.13;31.96;97242.06;4997850;28;20021;-75
2021/05/13 10:26:35;;;;;;;1.67;0.50;;;;;;;20.34;32.47;97240.56;4995680;28;20056;-78
2021/05/13 10:29:24;;;;;;;6.50;1.20;;;;;;;20.36;32.05;97231.34;5015495;28;20680;-76
2021/05/13 10:32:24;;;;;;;4.25;1.65;;;;;;;20.53;30.63;97231.34;5014879;28;20056;-76
2021/05/13 10:35:09;;;;;;;5.07;1.50;;;;;;;20.50;33.80;97208.06;5013066;28;20036;-76
2021/05/13 10:37:39;;;;;;;4.15;1.30;;;;;;;20.62;32.17;97209.84;4989216;28;20025;-74
2021/05/13 10:42:40;;;;;;;6.53;4.20;;;;;;;20.86;30.79;97200.66;5019496;28;20052;-75
2021/05/13 10:45:24;;;;;;;7.82;3.28;;;;;;;21.02;30.69;97203.47;4995053;28;20652;-76
2021/05/13 10:48:08;;;;;;;4.32;1.85;;;;;;;21.07;29.86;97199.06;5018480;28;20040;-75
2021/05/13 10:51:03;;;;;;;2.97;0.75;;;;;;;21.12;29.60;97190.41;4995542;28;20554;-74
2021/05/13 10:53:35;;;;;;;1.52;0.50;;;;;;;21.05;26.77;97189.78;4994546;28;20033;-75
2021/05/13 10:56:25;;;;;;;4.90;2.40;;;;;;;21.01;28.21;97183.38;5011359;28;20285;-74
2021/05/13 10:59:05;;;;;;;5.43;2.10;;;;;;;21.00;28.51;97184.44;5010512;28;20117;-73
2021/05/13 11:01:47;;;;;;;;;;;;;;;21.09;27.48;97175.81;5001838;28;20132;-75
2021/05/13 11:04:25;;;;;;;4.45;1.10;;;;;;;21.21;25.85;97174.88;4997997;28;19917;-76
2021/05/13 11:06:58;;;;;;;6.82;3.25;;;;;;;21.22;31.19;97182.56;5017174;28;20049;-71
2021/05/13 11:09:39;;;;;;;5.00;2.25;;;;;;;21.28;27.90;97175.47;4984401;28;20068;-73
2021/05/13 11:12:23;;;;;;;4.63;1.40;;;;;;;21.27;28.65;97164.13;5012008;28;20120;-74
2021/05/13 11:17:43;;;;;;;1.65;0.50;;;;;;;21.43;29.24;97165.09;5000073;28;20041;-76
2021/05/13 11:20:20;;;;;;;2.40;0.60;;;;;;;21.52;27.41;97154.06;5004370;28;20021;-77
2021/05/13 11:23:10;;;;;;;3.72;1.00;;;;;;;21.58;26.79;97161.81;5014200;28;20029;-74
2021/05/13 11:25:43;;;;;;;2.78;0.73;;;;;;;21.49;27.00;97140.31;5001091;28;20116;-75
2021/05/13 11:28:25;;;;;;;2.67;0.70;;;;;;;21.57;28.37;97151.47;5011770;28;20187;-75
2021/05/13 11:30:54;;;;;;;3.13;0.60;;;;;;;21.72;26.46;97150.81;5003917;28;20022;-74
2021/05/13 11:33:19;;;;;;;3.65;1.10;;;;;;;21.71;24.89;97146.59;5002894;28;20030;-75
2021/05/13 11:35:45;;;;;;;2.58;0.80;;;;;;;21.66;25.01;97124.31;4997134;28;20326;-77
2021/05/13 11:38:15;;;;;;;2.47;0.52;;;;;;;21.76;24.26;97131.53;4997158;28;20040;-75
2021/05/13 11:40:40;;;;;;;4.03;1.00;;;;;;;21.81;25.85;97133.41;5018587;28;20036;-77
2021/05/13 11:43:39;;;;;;;3.90;1.48;;;;;;;21.87;24.00;97135.84;4998077;28;20406;-75
2021/05/13 11:46:26;;;;;;;3.33;1.20;;;;;;;21.94;26.64;97125.06;4968921;28;20183;-74
2021/05/13 11:48:53;;;;;;;4.22;1.20;;;;;;;22.00;24.00;97131.19;5010747;28;20124;-75
2021/05/13 11:51:23;;;;;;;1.95;0.65;;;;;;;21.94;24.26;97130.34;4994161;28;20033;-75